»·PEaware :: WAT306 KGCN-KTUS

WAT306 :: KGCN-KTUS

FLIGHT INFORMATION

Flight Status: Arrived
Operator:
Walker Air Transport
More flights by this operator :: More flights under this callsign
Pilot: Ethan S. (29221)
Aircraft: SOCATA TBM-900
(TBM9)
More flights by this aircraft type
Origin: KGCN Grand Canyon Natl Park
United States
Destination: KTUS Tucson Intl
United States
More flights between these airports :: More routes between these airports
Route: +GRAND4 BISOP NAVHO J11 PXR DINGO5
File this flight plan on PilotEdge
Remarks:
Altitude:
(Current/Filed)
31,000ft
Speed:
(Current/Filed)
320kts
Departed: 27-Aug-20 03:10 PM
Arrived: 27-Aug-20 04:22 PM
Distance/Time
Traveled:
237nm/1:12
Distance/Time
To Go:
Arrived

Flight Plot

Page will automatically refresh every two minutes.

Flight plan parsing failed; only flown route is shown


Map Options




Map Legend


Flown Route
Filed Route
Departure Airport
Arrival Airport
Navaid (VOR, NDB)
Fix

Horizontal Profiles

Position Reports

Time Latitude Longitude Heading Altitude Ground
Speed
27-Aug-20 14:58 35.959523 -112.136930 218 6622ft 0kts
27-Aug-20 14:59 35.959522 -112.136930 218 6622ft 0kts
27-Aug-20 15:00 35.959522 -112.136930 218 6622ft 0kts
27-Aug-20 15:01 35.959522 -112.136930 218 6622ft 0kts
27-Aug-20 15:02 35.959522 -112.136930 218 6622ft 0kts
27-Aug-20 15:03 35.959522 -112.136930 218 6622ft 0kts
27-Aug-20 15:04 35.959522 -112.136930 218 6622ft 0kts
27-Aug-20 15:05 35.959522 -112.136930 218 6622ft 0kts
27-Aug-20 15:06 35.959522 -112.136930 218 6622ft 0kts
27-Aug-20 15:07 35.959522 -112.136930 218 6622ft 0kts
27-Aug-20 15:08 35.960822 -112.136324 13 6623ft 12kts
27-Aug-20 15:09 35.953467 -112.145665 223 6726ft 122kts
27-Aug-20 15:10 35.920499 -112.177213 220 8826ft 149kts
27-Aug-20 15:11 35.885725 -112.207061 214 11181ft 147kts
27-Aug-20 15:12 35.848793 -112.233801 213 13921ft 151kts
27-Aug-20 15:13 35.811091 -112.260781 213 16710ft 155kts
27-Aug-20 15:14 35.771960 -112.288744 213 19462ft 160kts
27-Aug-20 15:15 35.731504 -112.317621 213 22111ft 165kts
27-Aug-20 15:16 35.690164 -112.347106 213 24804ft 169kts
27-Aug-20 15:17 35.647742 -112.377328 213 27218ft 175kts
27-Aug-20 15:18 35.604173 -112.408326 212 29563ft 180kts
27-Aug-20 15:19 35.552443 -112.426468 189 31199ft 215kts
27-Aug-20 15:20 35.479247 -112.433339 188 31192ft 276kts
27-Aug-20 15:21 35.394719 -112.440569 186 31176ft 298kts
27-Aug-20 15:22 35.305792 -112.445737 186 31171ft 305kts
27-Aug-20 15:23 35.215811 -112.450943 186 31170ft 307kts
27-Aug-20 15:24 35.125592 -112.456141 186 31137ft 308kts
27-Aug-20 15:25 35.037873 -112.461191 186 31096ft 308kts
27-Aug-20 15:26 34.949166 -112.466321 185 31058ft 309kts
27-Aug-20 15:27 34.861265 -112.471327 184 31037ft 310kts
27-Aug-20 15:28 34.772519 -112.476364 184 31036ft 312kts
27-Aug-20 15:29 34.684461 -112.473112 163 31036ft 315kts
27-Aug-20 15:30 34.599408 -112.438291 163 31036ft 316kts
27-Aug-20 15:31 34.514667 -112.403816 163 31035ft 316kts
27-Aug-20 15:32 34.429572 -112.369277 163 31035ft 316kts
27-Aug-20 15:33 34.344795 -112.334937 163 31035ft 315kts
27-Aug-20 15:34 34.259509 -112.300472 163 31035ft 315kts
27-Aug-20 15:35 34.174123 -112.266036 163 30937ft 318kts
27-Aug-20 15:36 34.088050 -112.231399 163 30779ft 320kts
27-Aug-20 15:37 34.002580 -112.197076 163 30741ft 317kts
27-Aug-20 15:38 33.916918 -112.162751 163 30741ft 316kts
27-Aug-20 15:39 33.831924 -112.128765 163 30743ft 316kts
27-Aug-20 15:40 33.745742 -112.094386 163 30102ft 334kts
27-Aug-20 15:41 33.651874 -112.056991 163 28165ft 358kts
27-Aug-20 15:42 33.554758 -112.018418 163 26184ft 357kts
27-Aug-20 15:43 33.459243 -111.980570 163 24306ft 350kts
27-Aug-20 15:44 33.364627 -111.962439 176 23646ft 318kts
27-Aug-20 15:45 33.281052 -111.953049 176 23570ft 275kts
27-Aug-20 15:46 33.201118 -111.944076 176 23587ft 293kts
27-Aug-20 15:47 33.115702 -111.934465 176 23615ft 306kts
27-Aug-20 15:48 33.028064 -111.924638 176 23616ft 307kts
27-Aug-20 15:49 32.938010 -111.914568 175 22582ft 331kts
27-Aug-20 15:50 32.861108 -111.888337 145 20941ft 248kts
27-Aug-20 15:51 32.844338 -111.874350 145 20558ft 244kts
27-Aug-20 15:52 32.844338 -111.874350 145 20558ft 244kts
27-Aug-20 15:53 32.844338 -111.874350 145 20558ft 244kts
27-Aug-20 15:54 32.844338 -111.874350 145 20558ft 244kts
27-Aug-20 15:55 32.844338 -111.874350 145 20558ft 244kts
27-Aug-20 15:56 32.844338 -111.874350 145 20558ft 244kts
27-Aug-20 15:57 32.844338 -111.874350 145 20558ft 244kts
27-Aug-20 15:58 32.824812 -111.858137 145 20118ft 244kts
27-Aug-20 15:59 32.754947 -111.800300 145 18567ft 321kts
27-Aug-20 16:00 32.675156 -111.734380 145 16678ft 332kts
27-Aug-20 16:01 32.595029 -111.668345 144 14800ft 322kts
27-Aug-20 16:02 32.527565 -111.595325 125 13031ft 310kts
27-Aug-20 16:03 32.478753 -111.508657 102 11927ft 288kts
27-Aug-20 16:04 32.417525 -111.438214 141 9813ft 312kts
27-Aug-20 16:05 32.349243 -111.374220 141 8979ft 287kts
27-Aug-20 16:06 32.286434 -111.315450 141 8967ft 277kts
27-Aug-20 16:07 32.224936 -111.258038 141 8964ft 274kts
27-Aug-20 16:08 32.161981 -111.199344 141 8963ft 273kts
27-Aug-20 16:09 32.097773 -111.139587 141 8155ft 291kts
27-Aug-20 16:10 32.035383 -111.077156 139 7974ft 276kts
27-Aug-20 16:11 31.975351 -111.016678 140 7892ft 277kts
27-Aug-20 16:13 31.914087 -110.951940 136 6638ft 276kts
27-Aug-20 16:14 31.878808 -110.878509 69 5994ft 244kts
27-Aug-20 16:15 31.921926 -110.821056 42 6006ft 220kts
27-Aug-20 16:16 31.973035 -110.780155 341 5309ft 213kts
27-Aug-20 16:17 32.012876 -110.818471 313 5109ft 156kts
27-Aug-20 16:18 32.042854 -110.853519 313 4309ft 146kts
27-Aug-20 16:19 32.067839 -110.882775 315 3669ft 95kts
27-Aug-20 16:20 32.085379 -110.903336 314 3122ft 80kts
27-Aug-20 16:21 32.102338 -110.923232 315 2670ft 71kts
27-Aug-20 16:22 32.108024 -110.927372 317 2633ft 11kts
27-Aug-20 16:23 32.110865 -110.930724 315 2623ft 10kts
27-Aug-20 16:24 32.113842 -110.934234 314 2613ft 17kts
27-Aug-20 16:25 32.117546 -110.938584 313 2600ft 11kts
27-Aug-20 16:26 32.120887 -110.942464 315 2588ft 21kts
27-Aug-20 16:26 32.123680 -110.945749 315 2576ft 12kts
27-Aug-20 16:28 32.125690 -110.945113 160 2573ft 9kts
27-Aug-20 16:29 32.125555 -110.945308 314 2573ft 0kts
27-Aug-20 16:29 32.125555 -110.945308 314 2573ft 0kts
27-Aug-20 16:30 32.125555 -110.945308 314 2573ft 0kts
27-Aug-20 16:31 32.125555 -110.945308 314 2573ft 0kts
27-Aug-20 16:32 32.125555 -110.945308 314 2573ft 0kts
27-Aug-20 16:33 32.125555 -110.945308 314 2573ft 0kts
27-Aug-20 16:34 32.125555 -110.945308 314 2573ft 0kts
27-Aug-20 16:35 32.125555 -110.945308 314 2573ft 0kts

Navigation Log

Ident Type
Flight plan parsing failed, navigation log unavailable